<?xml version="1.0" encoding="utf-8"?>
<gpx xmlns:xsi="http://www.w3.org/2001/XMLSchema-instance" xmlns:xsd="http://www.w3.org/2001/XMLSchema" version="1.1" creator="Shapelink.com" xmlns="http://www.topografix.com/GPX/1/1" xmlns:gpxtpx="http://www.garmin.com/xmlschemas/TrackPointExtension/v1">
  <metadata>
    <name>Gåing 1.62 km, 2012-05-22</name>
    <desc></desc>
    <author><name>Mikael Blom</name></author> 
    <time>2012-05-22T17:04:58Z</time>
  </metadata>
  <trk>
    <name>Gåing 1.62 km, 2012-05-22</name>
    <trkseg>
      <trkpt lat="59.9928186" lon="17.737209">
        <ele>147.219</ele>
        <time>2012-05-22T17:04:58Z</time>
      </trkpt>
      <trkpt lat="59.9928162" lon="17.7372134">
        <ele>148.661</ele>
        <time>2012-05-22T17:04:59Z</time>
      </trkpt>
      <trkpt lat="59.9927151" lon="17.7373108">
        <ele>150.103</ele>
        <time>2012-05-22T17:05:03Z</time>
      </trkpt>
      <trkpt lat="59.992626" lon="17.7373447">
        <ele>159.235</ele>
        <time>2012-05-22T17:05:08Z</time>
      </trkpt>
      <trkpt lat="59.9924964" lon="17.7373361">
        <ele>166.926</ele>
        <time>2012-05-22T17:05:15Z</time>
      </trkpt>
      <trkpt lat="59.9923904" lon="17.7373843">
        <ele>173.175</ele>
        <time>2012-05-22T17:05:20Z</time>
      </trkpt>
      <trkpt lat="59.9923598" lon="17.7374004">
        <ele>177.981</ele>
        <time>2012-05-22T17:05:23Z</time>
      </trkpt>
      <trkpt lat="59.992242" lon="17.7373936">
        <ele>178.943</ele>
        <time>2012-05-22T17:05:27Z</time>
      </trkpt>
      <trkpt lat="59.9920091" lon="17.7375195">
        <ele>182.788</ele>
        <time>2012-05-22T17:05:34Z</time>
      </trkpt>
      <trkpt lat="59.991911" lon="17.7375454">
        <ele>189.998</ele>
        <time>2012-05-22T17:05:38Z</time>
      </trkpt>
      <trkpt lat="59.991774" lon="17.7376006">
        <ele>189.517</ele>
        <time>2012-05-22T17:05:42Z</time>
      </trkpt>
      <trkpt lat="59.9916869" lon="17.7376019">
        <ele>190.959</ele>
        <time>2012-05-22T17:05:46Z</time>
      </trkpt>
      <trkpt lat="59.9916609" lon="17.7376335">
        <ele>194.324</ele>
        <time>2012-05-22T17:05:50Z</time>
      </trkpt>
      <trkpt lat="59.9916126" lon="17.7376678">
        <ele>193.362</ele>
        <time>2012-05-22T17:05:54Z</time>
      </trkpt>
      <trkpt lat="59.9915563" lon="17.7376607">
        <ele>191.92</ele>
        <time>2012-05-22T17:05:59Z</time>
      </trkpt>
      <trkpt lat="59.9914845" lon="17.7377043">
        <ele>187.594</ele>
        <time>2012-05-22T17:06:03Z</time>
      </trkpt>
      <trkpt lat="59.9913548" lon="17.737804">
        <ele>179.423</ele>
        <time>2012-05-22T17:06:09Z</time>
      </trkpt>
      <trkpt lat="59.9913144" lon="17.7378328">
        <ele>178.462</ele>
        <time>2012-05-22T17:06:13Z</time>
      </trkpt>
      <trkpt lat="59.9912146" lon="17.7378771">
        <ele>171.252</ele>
        <time>2012-05-22T17:06:17Z</time>
      </trkpt>
      <trkpt lat="59.9911252" lon="17.7379406">
        <ele>169.81</ele>
        <time>2012-05-22T17:06:22Z</time>
      </trkpt>
      <trkpt lat="59.99106" lon="17.7379645">
        <ele>169.329</ele>
        <time>2012-05-22T17:06:26Z</time>
      </trkpt>
      <trkpt lat="59.9909799" lon="17.7380014">
        <ele>166.445</ele>
        <time>2012-05-22T17:06:30Z</time>
      </trkpt>
      <trkpt lat="59.9908812" lon="17.7380545">
        <ele>166.445</ele>
        <time>2012-05-22T17:06:35Z</time>
      </trkpt>
      <trkpt lat="59.9908611" lon="17.7380587">
        <ele>165.965</ele>
        <time>2012-05-22T17:06:36Z</time>
      </trkpt>
      <trkpt lat="59.9907809" lon="17.7380912">
        <ele>165.003</ele>
        <time>2012-05-22T17:06:40Z</time>
      </trkpt>
      <trkpt lat="59.9907058" lon="17.7381432">
        <ele>167.407</ele>
        <time>2012-05-22T17:06:45Z</time>
      </trkpt>
      <trkpt lat="59.9906069" lon="17.7381818">
        <ele>167.407</ele>
        <time>2012-05-22T17:06:50Z</time>
      </trkpt>
      <trkpt lat="59.9905172" lon="17.7382261">
        <ele>169.329</ele>
        <time>2012-05-22T17:06:54Z</time>
      </trkpt>
      <trkpt lat="59.990456" lon="17.7382343">
        <ele>170.771</ele>
        <time>2012-05-22T17:06:59Z</time>
      </trkpt>
      <trkpt lat="59.9904286" lon="17.7382322">
        <ele>169.329</ele>
        <time>2012-05-22T17:07:01Z</time>
      </trkpt>
      <trkpt lat="59.9903526" lon="17.738266">
        <ele>165.003</ele>
        <time>2012-05-22T17:07:06Z</time>
      </trkpt>
      <trkpt lat="59.9902971" lon="17.7382939">
        <ele>166.445</ele>
        <time>2012-05-22T17:07:09Z</time>
      </trkpt>
      <trkpt lat="59.9902541" lon="17.7383336">
        <ele>171.252</ele>
        <time>2012-05-22T17:07:14Z</time>
      </trkpt>
      <trkpt lat="59.990207" lon="17.7383657">
        <ele>169.81</ele>
        <time>2012-05-22T17:07:18Z</time>
      </trkpt>
      <trkpt lat="59.9901447" lon="17.7383816">
        <ele>169.81</ele>
        <time>2012-05-22T17:07:22Z</time>
      </trkpt>
      <trkpt lat="59.990052" lon="17.7384217">
        <ele>171.733</ele>
        <time>2012-05-22T17:07:29Z</time>
      </trkpt>
      <trkpt lat="59.9899123" lon="17.7384167">
        <ele>165.484</ele>
        <time>2012-05-22T17:07:36Z</time>
      </trkpt>
      <trkpt lat="59.9898794" lon="17.7384167">
        <ele>165.003</ele>
        <time>2012-05-22T17:07:38Z</time>
      </trkpt>
      <trkpt lat="59.9898353" lon="17.7384214">
        <ele>165.003</ele>
        <time>2012-05-22T17:07:41Z</time>
      </trkpt>
      <trkpt lat="59.9897599" lon="17.7384766">
        <ele>162.12</ele>
        <time>2012-05-22T17:07:46Z</time>
      </trkpt>
      <trkpt lat="59.9896457" lon="17.7385746">
        <ele>158.755</ele>
        <time>2012-05-22T17:07:54Z</time>
      </trkpt>
      <trkpt lat="59.9895551" lon="17.7386263">
        <ele>154.91</ele>
        <time>2012-05-22T17:08:00Z</time>
      </trkpt>
      <trkpt lat="59.9894877" lon="17.7386663">
        <ele>153.468</ele>
        <time>2012-05-22T17:08:05Z</time>
      </trkpt>
      <trkpt lat="59.9894113" lon="17.7387102">
        <ele>146.738</ele>
        <time>2012-05-22T17:08:09Z</time>
      </trkpt>
      <trkpt lat="59.9893604" lon="17.7387116">
        <ele>145.296</ele>
        <time>2012-05-22T17:08:14Z</time>
      </trkpt>
      <trkpt lat="59.9892145" lon="17.7389482">
        <ele>143.374</ele>
        <time>2012-05-22T17:08:21Z</time>
      </trkpt>
      <trkpt lat="59.9887497" lon="17.7390972">
        <ele>145.296</ele>
        <time>2012-05-22T17:08:53Z</time>
      </trkpt>
      <trkpt lat="59.9886048" lon="17.739184">
        <ele>134.722</ele>
        <time>2012-05-22T17:08:57Z</time>
      </trkpt>
      <trkpt lat="59.9883631" lon="17.7393757">
        <ele>114.054</ele>
        <time>2012-05-22T17:09:02Z</time>
      </trkpt>
      <trkpt lat="59.9883269" lon="17.7394003">
        <ele>109.728</ele>
        <time>2012-05-22T17:09:03Z</time>
      </trkpt>
      <trkpt lat="59.9882445" lon="17.7394357">
        <ele>102.518</ele>
        <time>2012-05-22T17:09:06Z</time>
      </trkpt>
      <trkpt lat="59.9881588" lon="17.7394588">
        <ele>99.1531</ele>
        <time>2012-05-22T17:09:10Z</time>
      </trkpt>
      <trkpt lat="59.9881107" lon="17.7394826">
        <ele>97.2305</ele>
        <time>2012-05-22T17:09:13Z</time>
      </trkpt>
      <trkpt lat="59.9880236" lon="17.7394258">
        <ele>94.8271</ele>
        <time>2012-05-22T17:09:19Z</time>
      </trkpt>
      <trkpt lat="59.9879924" lon="17.7394126">
        <ele>92.9045</ele>
        <time>2012-05-22T17:09:21Z</time>
      </trkpt>
      <trkpt lat="59.9879633" lon="17.7393876">
        <ele>91.4625</ele>
        <time>2012-05-22T17:09:23Z</time>
      </trkpt>
      <trkpt lat="59.9879042" lon="17.739417">
        <ele>90.5013</ele>
        <time>2012-05-22T17:09:26Z</time>
      </trkpt>
      <trkpt lat="59.9878172" lon="17.739424">
        <ele>86.656</ele>
        <time>2012-05-22T17:09:31Z</time>
      </trkpt>
      <trkpt lat="59.9876863" lon="17.7394828">
        <ele>81.3688</ele>
        <time>2012-05-22T17:09:37Z</time>
      </trkpt>
      <trkpt lat="59.9875848" lon="17.7394787">
        <ele>78.9655</ele>
        <time>2012-05-22T17:09:43Z</time>
      </trkpt>
      <trkpt lat="59.9875387" lon="17.7394905">
        <ele>78.004</ele>
        <time>2012-05-22T17:09:47Z</time>
      </trkpt>
      <trkpt lat="59.9874756" lon="17.7394766">
        <ele>76.5621</ele>
        <time>2012-05-22T17:09:52Z</time>
      </trkpt>
      <trkpt lat="59.9873808" lon="17.7394453">
        <ele>74.6395</ele>
        <time>2012-05-22T17:09:58Z</time>
      </trkpt>
      <trkpt lat="59.987293" lon="17.7394663">
        <ele>73.6782</ele>
        <time>2012-05-22T17:10:03Z</time>
      </trkpt>
      <trkpt lat="59.98726" lon="17.7394791">
        <ele>73.1976</ele>
        <time>2012-05-22T17:10:05Z</time>
      </trkpt>
      <trkpt lat="59.9871912" lon="17.7394468">
        <ele>71.7555</ele>
        <time>2012-05-22T17:10:09Z</time>
      </trkpt>
      <trkpt lat="59.9871242" lon="17.7394092">
        <ele>70.7942</ele>
        <time>2012-05-22T17:10:13Z</time>
      </trkpt>
      <trkpt lat="59.9870476" lon="17.7393605">
        <ele>69.3523</ele>
        <time>2012-05-22T17:10:19Z</time>
      </trkpt>
      <trkpt lat="59.9869743" lon="17.7392911">
        <ele>68.8716</ele>
        <time>2012-05-22T17:10:25Z</time>
      </trkpt>
      <trkpt lat="59.9868988" lon="17.739261">
        <ele>76.0814</ele>
        <time>2012-05-22T17:10:31Z</time>
      </trkpt>
      <trkpt lat="59.9867886" lon="17.7391502">
        <ele>78.004</ele>
        <time>2012-05-22T17:10:40Z</time>
      </trkpt>
      <trkpt lat="59.9867403" lon="17.7391149">
        <ele>79.446</ele>
        <time>2012-05-22T17:10:44Z</time>
      </trkpt>
      <trkpt lat="59.9866886" lon="17.7390683">
        <ele>77.0428</ele>
        <time>2012-05-22T17:10:49Z</time>
      </trkpt>
      <trkpt lat="59.9866082" lon="17.7390306">
        <ele>75.1202</ele>
        <time>2012-05-22T17:10:53Z</time>
      </trkpt>
      <trkpt lat="59.9865607" lon="17.7389829">
        <ele>78.004</ele>
        <time>2012-05-22T17:10:57Z</time>
      </trkpt>
      <trkpt lat="59.9864927" lon="17.7389517">
        <ele>77.0428</ele>
        <time>2012-05-22T17:11:01Z</time>
      </trkpt>
      <trkpt lat="59.9863818" lon="17.7388622">
        <ele>76.0814</ele>
        <time>2012-05-22T17:11:08Z</time>
      </trkpt>
      <trkpt lat="59.9863442" lon="17.738805">
        <ele>76.0814</ele>
        <time>2012-05-22T17:11:12Z</time>
      </trkpt>
      <trkpt lat="59.9862804" lon="17.7387482">
        <ele>74.1588</ele>
        <time>2012-05-22T17:11:16Z</time>
      </trkpt>
      <trkpt lat="59.9862337" lon="17.7387033">
        <ele>75.1202</ele>
        <time>2012-05-22T17:11:20Z</time>
      </trkpt>
      <trkpt lat="59.9861973" lon="17.7387061">
        <ele>74.1588</ele>
        <time>2012-05-22T17:11:22Z</time>
      </trkpt>
      <trkpt lat="59.9861166" lon="17.7386812">
        <ele>73.1976</ele>
        <time>2012-05-22T17:11:27Z</time>
      </trkpt>
      <trkpt lat="59.9860979" lon="17.7386704">
        <ele>72.7169</ele>
        <time>2012-05-22T17:11:28Z</time>
      </trkpt>
      <trkpt lat="59.9860659" lon="17.7386351">
        <ele>73.1976</ele>
        <time>2012-05-22T17:11:30Z</time>
      </trkpt>
      <trkpt lat="59.9859654" lon="17.7385781">
        <ele>72.2362</ele>
        <time>2012-05-22T17:11:36Z</time>
      </trkpt>
      <trkpt lat="59.9859292" lon="17.738544">
        <ele>70.3135</ele>
        <time>2012-05-22T17:11:41Z</time>
      </trkpt>
      <trkpt lat="59.9858277" lon="17.7384877">
        <ele>67.9103</ele>
        <time>2012-05-22T17:11:47Z</time>
      </trkpt>
      <trkpt lat="59.9857914" lon="17.7384788">
        <ele>66.949</ele>
        <time>2012-05-22T17:11:49Z</time>
      </trkpt>
      <trkpt lat="59.9857048" lon="17.7384644">
        <ele>64.5457</ele>
        <time>2012-05-22T17:11:54Z</time>
      </trkpt>
      <trkpt lat="59.9856959" lon="17.738464">
        <ele>65.0264</ele>
        <time>2012-05-22T17:11:55Z</time>
      </trkpt>
      <trkpt lat="59.985622" lon="17.7384365">
        <ele>67.4297</ele>
        <time>2012-05-22T17:12:00Z</time>
      </trkpt>
      <trkpt lat="59.9855895" lon="17.7384115">
        <ele>66.949</ele>
        <time>2012-05-22T17:12:02Z</time>
      </trkpt>
      <trkpt lat="59.9855222" lon="17.7383502">
        <ele>65.5071</ele>
        <time>2012-05-22T17:12:07Z</time>
      </trkpt>
      <trkpt lat="59.9854726" lon="17.7383391">
        <ele>65.9877</ele>
        <time>2012-05-22T17:12:11Z</time>
      </trkpt>
      <trkpt lat="59.9854486" lon="17.7383427">
        <ele>65.9877</ele>
        <time>2012-05-22T17:12:13Z</time>
      </trkpt>
      <trkpt lat="59.985363" lon="17.7382996">
        <ele>65.9877</ele>
        <time>2012-05-22T17:12:19Z</time>
      </trkpt>
      <trkpt lat="59.9852894" lon="17.7382723">
        <ele>64.0651</ele>
        <time>2012-05-22T17:12:23Z</time>
      </trkpt>
      <trkpt lat="59.9851707" lon="17.7382639">
        <ele>61.6617</ele>
        <time>2012-05-22T17:12:29Z</time>
      </trkpt>
      <trkpt lat="59.9850869" lon="17.7382603">
        <ele>61.6617</ele>
        <time>2012-05-22T17:12:34Z</time>
      </trkpt>
      <trkpt lat="59.9850259" lon="17.7382463">
        <ele>62.1423</ele>
        <time>2012-05-22T17:12:38Z</time>
      </trkpt>
      <trkpt lat="59.9849725" lon="17.7382219">
        <ele>62.1423</ele>
        <time>2012-05-22T17:12:42Z</time>
      </trkpt>
      <trkpt lat="59.9848883" lon="17.7382163">
        <ele>61.181</ele>
        <time>2012-05-22T17:12:47Z</time>
      </trkpt>
      <trkpt lat="59.9848322" lon="17.7382143">
        <ele>63.1036</ele>
        <time>2012-05-22T17:12:52Z</time>
      </trkpt>
      <trkpt lat="59.9847958" lon="17.7382331">
        <ele>65.5071</ele>
        <time>2012-05-22T17:12:55Z</time>
      </trkpt>
      <trkpt lat="59.9847207" lon="17.7382207">
        <ele>69.3523</ele>
        <time>2012-05-22T17:13:00Z</time>
      </trkpt>
      <trkpt lat="59.9845804" lon="17.7381801">
        <ele>68.3909</ele>
        <time>2012-05-22T17:13:08Z</time>
      </trkpt>
      <trkpt lat="59.9845524" lon="17.7381373">
        <ele>72.2362</ele>
        <time>2012-05-22T17:13:12Z</time>
      </trkpt>
      <trkpt lat="59.9844493" lon="17.7381127">
        <ele>69.3523</ele>
        <time>2012-05-22T17:13:17Z</time>
      </trkpt>
      <trkpt lat="59.9843778" lon="17.7380918">
        <ele>69.8329</ele>
        <time>2012-05-22T17:13:23Z</time>
      </trkpt>
      <trkpt lat="59.9843147" lon="17.7380627">
        <ele>68.3909</ele>
        <time>2012-05-22T17:13:27Z</time>
      </trkpt>
      <trkpt lat="59.9842461" lon="17.7380321">
        <ele>68.8716</ele>
        <time>2012-05-22T17:13:32Z</time>
      </trkpt>
      <trkpt lat="59.9841643" lon="17.7380742">
        <ele>71.7555</ele>
        <time>2012-05-22T17:13:38Z</time>
      </trkpt>
      <trkpt lat="59.9841099" lon="17.7381059">
        <ele>72.7169</ele>
        <time>2012-05-22T17:13:43Z</time>
      </trkpt>
      <trkpt lat="59.9840276" lon="17.7380898">
        <ele>73.1976</ele>
        <time>2012-05-22T17:13:49Z</time>
      </trkpt>
      <trkpt lat="59.9839647" lon="17.7381145">
        <ele>71.7555</ele>
        <time>2012-05-22T17:13:53Z</time>
      </trkpt>
      <trkpt lat="59.9838732" lon="17.7380872">
        <ele>66.4683</ele>
        <time>2012-05-22T17:13:59Z</time>
      </trkpt>
      <trkpt lat="59.9837886" lon="17.7381045">
        <ele>64.5457</ele>
        <time>2012-05-22T17:14:04Z</time>
      </trkpt>
      <trkpt lat="59.9836804" lon="17.7381513">
        <ele>65.9877</ele>
        <time>2012-05-22T17:14:11Z</time>
      </trkpt>
      <trkpt lat="59.9836387" lon="17.7381441">
        <ele>64.5457</ele>
        <time>2012-05-22T17:14:13Z</time>
      </trkpt>
      <trkpt lat="59.9835726" lon="17.7381734">
        <ele>65.5071</ele>
        <time>2012-05-22T17:14:17Z</time>
      </trkpt>
      <trkpt lat="59.9835075" lon="17.7381908">
        <ele>65.9877</ele>
        <time>2012-05-22T17:14:22Z</time>
      </trkpt>
      <trkpt lat="59.9834346" lon="17.7381959">
        <ele>65.0264</ele>
        <time>2012-05-22T17:14:27Z</time>
      </trkpt>
      <trkpt lat="59.9833714" lon="17.738224">
        <ele>63.5844</ele>
        <time>2012-05-22T17:14:32Z</time>
      </trkpt>
      <trkpt lat="59.9833085" lon="17.7382336">
        <ele>64.0651</ele>
        <time>2012-05-22T17:14:36Z</time>
      </trkpt>
      <trkpt lat="59.9832553" lon="17.7382474">
        <ele>64.5457</ele>
        <time>2012-05-22T17:14:39Z</time>
      </trkpt>
      <trkpt lat="59.9832148" lon="17.7382471">
        <ele>70.7942</ele>
        <time>2012-05-22T17:14:45Z</time>
      </trkpt>
      <trkpt lat="59.9831283" lon="17.7382401">
        <ele>72.7169</ele>
        <time>2012-05-22T17:14:50Z</time>
      </trkpt>
      <trkpt lat="59.9830595" lon="17.7382442">
        <ele>71.7555</ele>
        <time>2012-05-22T17:14:54Z</time>
      </trkpt>
      <trkpt lat="59.9829746" lon="17.7382549">
        <ele>71.7555</ele>
        <time>2012-05-22T17:14:59Z</time>
      </trkpt>
      <trkpt lat="59.9829264" lon="17.7382625">
        <ele>74.1588</ele>
        <time>2012-05-22T17:15:02Z</time>
      </trkpt>
      <trkpt lat="59.9828724" lon="17.7382811">
        <ele>76.5621</ele>
        <time>2012-05-22T17:15:06Z</time>
      </trkpt>
      <trkpt lat="59.9827632" lon="17.7382363">
        <ele>79.446</ele>
        <time>2012-05-22T17:15:13Z</time>
      </trkpt>
      <trkpt lat="59.9827054" lon="17.738226">
        <ele>80.4075</ele>
        <time>2012-05-22T17:15:17Z</time>
      </trkpt>
      <trkpt lat="59.9826317" lon="17.7382117">
        <ele>78.004</ele>
        <time>2012-05-22T17:15:22Z</time>
      </trkpt>
      <trkpt lat="59.9826118" lon="17.7382063">
        <ele>77.5234</ele>
        <time>2012-05-22T17:15:23Z</time>
      </trkpt>
      <trkpt lat="59.9825583" lon="17.7381891">
        <ele>75.6008</ele>
        <time>2012-05-22T17:15:26Z</time>
      </trkpt>
      <trkpt lat="59.9824623" lon="17.7382514">
        <ele>73.1976</ele>
        <time>2012-05-22T17:15:32Z</time>
      </trkpt>
      <trkpt lat="59.9823354" lon="17.7382103">
        <ele>70.3135</ele>
        <time>2012-05-22T17:15:39Z</time>
      </trkpt>
      <trkpt lat="59.9822348" lon="17.7382298">
        <ele>66.4683</ele>
        <time>2012-05-22T17:15:45Z</time>
      </trkpt>
      <trkpt lat="59.9822037" lon="17.7382417">
        <ele>65.0264</ele>
        <time>2012-05-22T17:15:48Z</time>
      </trkpt>
      <trkpt lat="59.9821548" lon="17.738267">
        <ele>66.949</ele>
        <time>2012-05-22T17:15:53Z</time>
      </trkpt>
      <trkpt lat="59.9820957" lon="17.7383017">
        <ele>66.4683</ele>
        <time>2012-05-22T17:15:56Z</time>
      </trkpt>
      <trkpt lat="59.9819866" lon="17.7383255">
        <ele>62.6229</ele>
        <time>2012-05-22T17:16:02Z</time>
      </trkpt>
      <trkpt lat="59.9819271" lon="17.738373">
        <ele>65.0264</ele>
        <time>2012-05-22T17:16:07Z</time>
      </trkpt>
      <trkpt lat="59.9818629" lon="17.7384227">
        <ele>65.5071</ele>
        <time>2012-05-22T17:16:12Z</time>
      </trkpt>
      <trkpt lat="59.9817903" lon="17.7384613">
        <ele>63.1036</ele>
        <time>2012-05-22T17:16:17Z</time>
      </trkpt>
      <trkpt lat="59.9817198" lon="17.7385204">
        <ele>65.0264</ele>
        <time>2012-05-22T17:16:22Z</time>
      </trkpt>
      <trkpt lat="59.9816463" lon="17.7385302">
        <ele>64.5457</ele>
        <time>2012-05-22T17:16:27Z</time>
      </trkpt>
      <trkpt lat="59.9816194" lon="17.7385774">
        <ele>65.5071</ele>
        <time>2012-05-22T17:16:30Z</time>
      </trkpt>
      <trkpt lat="59.9815821" lon="17.7385773">
        <ele>65.9877</ele>
        <time>2012-05-22T17:16:33Z</time>
      </trkpt>
      <trkpt lat="59.9815246" lon="17.7386207">
        <ele>70.3135</ele>
        <time>2012-05-22T17:16:37Z</time>
      </trkpt>
      <trkpt lat="59.9814202" lon="17.7386415">
        <ele>73.1976</ele>
        <time>2012-05-22T17:16:43Z</time>
      </trkpt>
      <trkpt lat="59.9813732" lon="17.738655">
        <ele>73.6782</ele>
        <time>2012-05-22T17:16:48Z</time>
      </trkpt>
      <trkpt lat="59.981265" lon="17.7387063">
        <ele>69.8329</ele>
        <time>2012-05-22T17:16:54Z</time>
      </trkpt>
      <trkpt lat="59.9811866" lon="17.7387068">
        <ele>70.7942</ele>
        <time>2012-05-22T17:16:58Z</time>
      </trkpt>
      <trkpt lat="59.9811277" lon="17.7387378">
        <ele>71.7555</ele>
        <time>2012-05-22T17:17:02Z</time>
      </trkpt>
      <trkpt lat="59.9810858" lon="17.7387672">
        <ele>75.6008</ele>
        <time>2012-05-22T17:17:06Z</time>
      </trkpt>
      <trkpt lat="59.981034" lon="17.7387617">
        <ele>77.5234</ele>
        <time>2012-05-22T17:17:11Z</time>
      </trkpt>
      <trkpt lat="59.9809579" lon="17.7387881">
        <ele>77.0428</ele>
        <time>2012-05-22T17:17:16Z</time>
      </trkpt>
      <trkpt lat="59.9808905" lon="17.7387843">
        <ele>78.004</ele>
        <time>2012-05-22T17:17:21Z</time>
      </trkpt>
      <trkpt lat="59.980793" lon="17.7388213">
        <ele>71.7555</ele>
        <time>2012-05-22T17:17:25Z</time>
      </trkpt>
      <trkpt lat="59.9807336" lon="17.7388788">
        <ele>71.2749</ele>
        <time>2012-05-22T17:17:29Z</time>
      </trkpt>
      <trkpt lat="59.9806852" lon="17.7388798">
        <ele>71.7555</ele>
        <time>2012-05-22T17:17:34Z</time>
      </trkpt>
      <trkpt lat="59.9806173" lon="17.7388895">
        <ele>71.2749</ele>
        <time>2012-05-22T17:17:39Z</time>
      </trkpt>
      <trkpt lat="59.9806005" lon="17.738898">
        <ele>70.7942</ele>
        <time>2012-05-22T17:17:40Z</time>
      </trkpt>
      <trkpt lat="59.9805247" lon="17.7388939">
        <ele>69.8329</ele>
        <time>2012-05-22T17:17:45Z</time>
      </trkpt>
      <trkpt lat="59.9804383" lon="17.7389068">
        <ele>64.5457</ele>
        <time>2012-05-22T17:17:50Z</time>
      </trkpt>
      <trkpt lat="59.9804151" lon="17.7389259">
        <ele>62.6229</ele>
        <time>2012-05-22T17:17:51Z</time>
      </trkpt>
      <trkpt lat="59.9803278" lon="17.7389105">
        <ele>61.6617</ele>
        <time>2012-05-22T17:17:57Z</time>
      </trkpt>
      <trkpt lat="59.9802212" lon="17.7388999">
        <ele>59.2584</ele>
        <time>2012-05-22T17:18:04Z</time>
      </trkpt>
      <trkpt lat="59.980128" lon="17.7388656">
        <ele>58.2971</ele>
        <time>2012-05-22T17:18:10Z</time>
      </trkpt>
      <trkpt lat="59.9800941" lon="17.7388534">
        <ele>57.8165</ele>
        <time>2012-05-22T17:18:12Z</time>
      </trkpt>
      <trkpt lat="59.9800633" lon="17.7388508">
        <ele>56.3745</ele>
        <time>2012-05-22T17:18:14Z</time>
      </trkpt>
      <trkpt lat="59.9799441" lon="17.7388404">
        <ele>56.3745</ele>
        <time>2012-05-22T17:18:20Z</time>
      </trkpt>
      <trkpt lat="59.9799146" lon="17.7388399">
        <ele>56.3745</ele>
        <time>2012-05-22T17:18:22Z</time>
      </trkpt>
      <trkpt lat="59.9798177" lon="17.7389011">
        <ele>56.3745</ele>
        <time>2012-05-22T17:18:29Z</time>
      </trkpt>
      <trkpt lat="59.9797334" lon="17.7389501">
        <ele>56.3745</ele>
        <time>2012-05-22T17:18:35Z</time>
      </trkpt>
      <trkpt lat="59.9796406" lon="17.73899">
        <ele>54.9324</ele>
        <time>2012-05-22T17:18:41Z</time>
      </trkpt>
      <trkpt lat="59.9795634" lon="17.7390571">
        <ele>53.0098</ele>
        <time>2012-05-22T17:18:47Z</time>
      </trkpt>
      <trkpt lat="59.9795393" lon="17.7390653">
        <ele>53.0098</ele>
        <time>2012-05-22T17:18:49Z</time>
      </trkpt>
      <trkpt lat="59.979457" lon="17.739145">
        <ele>52.5292</ele>
        <time>2012-05-22T17:18:55Z</time>
      </trkpt>
      <trkpt lat="59.9793931" lon="17.7392107">
        <ele>53.0098</ele>
        <time>2012-05-22T17:19:00Z</time>
      </trkpt>
      <trkpt lat="59.979298" lon="17.7392393">
        <ele>50.126</ele>
        <time>2012-05-22T17:19:06Z</time>
      </trkpt>
      <trkpt lat="59.9791724" lon="17.7392822">
        <ele>47.2418</ele>
        <time>2012-05-22T17:19:14Z</time>
      </trkpt>
      <trkpt lat="59.979064" lon="17.7393889">
        <ele>47.2418</ele>
        <time>2012-05-22T17:19:21Z</time>
      </trkpt>
      <trkpt lat="59.9789759" lon="17.7394191">
        <ele>44.8386</ele>
        <time>2012-05-22T17:19:27Z</time>
      </trkpt>
      <trkpt lat="59.9789577" lon="17.7394454">
        <ele>44.8386</ele>
        <time>2012-05-22T17:19:29Z</time>
      </trkpt>
      <trkpt lat="59.979005" lon="17.7395683">
        <ele>44.8386</ele>
        <time>2012-05-22T17:19:35Z</time>
      </trkpt>
      <trkpt lat="59.9790214" lon="17.7395801">
        <ele>44.358</ele>
        <time>2012-05-22T17:19:36Z</time>
      </trkpt>
      <trkpt lat="59.9790578" lon="17.7396252">
        <ele>44.358</ele>
        <time>2012-05-22T17:19:40Z</time>
      </trkpt>
      <trkpt lat="59.9790426" lon="17.7397889">
        <ele>46.2806</ele>
        <time>2012-05-22T17:19:47Z</time>
      </trkpt>
      <trkpt lat="59.9790474" lon="17.7398377">
        <ele>47.2418</ele>
        <time>2012-05-22T17:19:49Z</time>
      </trkpt>
      <trkpt lat="59.9790102" lon="17.7399165">
        <ele>47.2418</ele>
        <time>2012-05-22T17:19:52Z</time>
      </trkpt>
      <trkpt lat="59.9789559" lon="17.7399438">
        <ele>44.8386</ele>
        <time>2012-05-22T17:19:56Z</time>
      </trkpt>
    </trkseg>
  </trk>
</gpx>